Time;durP1;ratioP1;P1;durP2;ratioP2;P2;SDS_P1;SDS_P2;PMS_P1;PMS_P2;Temp;Humidity;BMP_temperature;BMP_pressure;BME280_temperature;BME280_humidity;BME280_pressure;Samples;Min_cycle;Max_cycle;Signal;HPM_P1;HPM_P2
2023/08/26 00:01:36;;;;;;;10.90;8.05;;;;;;;20.70;100.00;93131.53;5060085;28;20118;-81
2023/08/26 00:04:03;;;;;;;11.32;8.75;;;;;;;20.64;100.00;93124.06;5048387;28;20390;-80
2023/08/26 00:06:30;;;;;;;9.65;8.10;;;;;;;20.63;100.00;93120.66;5050370;28;20094;-80
2023/08/26 00:08:56;;;;;;;10.80;7.93;;;;;;;20.63;100.00;93122.47;5057958;28;20049;-80
2023/08/26 00:11:23;;;;;;;11.10;8.23;;;;;;;20.59;100.00;93124.84;5067790;28;20049;-80
2023/08/26 00:13:51;;;;;;;11.23;8.65;;;;;;;20.58;100.00;93132.94;5056948;28;20503;-80
2023/08/26 00:16:18;;;;;;;12.15;7.82;;;;;;;20.55;100.00;93131.69;5063108;28;20045;-80
2023/08/26 00:18:45;;;;;;;11.52;8.60;;;;;;;20.51;100.00;93128.06;5052769;28;20554;-81
2023/08/26 00:21:12;;;;;;;11.20;8.25;;;;;;;20.41;100.00;93114.03;5052831;28;20041;-81
2023/08/26 00:23:39;;;;;;;12.80;8.77;;;;;;;20.43;100.00;93124.22;5054437;28;20052;-80
2023/08/26 00:26:06;;;;;;;11.05;8.85;;;;;;;20.37;100.00;93118.25;5054903;28;20091;-81
2023/08/26 00:28:32;;;;;;;12.20;8.85;;;;;;;20.35;100.00;93115.13;5061331;28;20102;-81
2023/08/26 00:31:01;;;;;;;11.50;8.27;;;;;;;20.32;100.00;93110.44;5059667;28;20049;-81
2023/08/26 00:33:28;;;;;;;10.80;8.15;;;;;;;20.27;100.00;93108.66;5052093;28;20052;-80
2023/08/26 00:35:54;;;;;;;11.05;8.27;;;;;;;20.24;100.00;93109.22;5061075;28;20049;-80
2023/08/26 00:38:21;;;;;;;10.85;8.25;;;;;;;20.21;100.00;93108.97;5056875;28;20044;-79
2023/08/26 00:40:48;;;;;;;11.40;8.77;;;;;;;20.12;100.00;93108.78;5054907;28;20056;-79
2023/08/26 00:43:15;;;;;;;11.43;8.65;;;;;;;20.03;100.00;93113.78;5057710;28;20090;-81
2023/08/26 00:45:44;;;;;;;12.45;8.85;;;;;;;19.74;100.00;93073.56;5051889;28;20471;-80
2023/08/26 00:48:13;;;;;;;11.07;8.65;;;;;;;19.93;100.00;93106.78;5056887;28;20045;-80
2023/08/26 00:50:43;;;;;;;12.00;9.38;;;;;;;19.90;100.00;93104.72;5051001;28;20110;-79
2023/08/26 00:53:12;;;;;;;13.13;9.63;;;;;;;19.90;100.00;93110.72;5056631;28;20485;-78
2023/08/26 00:55:40;;;;;;;12.88;9.20;;;;;;;19.88;100.00;93105.00;5052295;28;20041;-79
2023/08/26 00:58:07;;;;;;;10.73;8.13;;;;;;;19.81;100.00;93099.28;5055946;28;20072;-79
2023/08/26 01:00:35;;;;;;;13.02;8.00;;;;;;;19.73;100.00;93092.81;5055854;28;20558;-79
2023/08/26 01:03:02;;;;;;;13.43;8.82;;;;;;;19.74;100.00;93098.81;5053417;28;20047;-79
2023/08/26 01:05:30;;;;;;;13.98;8.73;;;;;;;19.59;100.00;93087.44;5054402;28;20041;-79
2023/08/26 01:07:58;;;;;;;12.05;8.93;;;;;;;19.74;100.00;93104.81;5050810;28;20102;-79
2023/08/26 01:10:29;;;;;;;12.20;8.75;;;;;;;19.67;100.00;93100.97;5059029;28;20327;-79
2023/08/26 01:13:01;;;;;;;12.38;9.45;;;;;;;19.56;100.00;93095.00;5055438;28;20198;-79
2023/08/26 01:15:29;;;;;;;12.77;9.27;;;;;;;19.67;100.00;93104.31;5059496;28;20045;-79
2023/08/26 01:17:59;;;;;;;11.10;8.75;;;;;;;19.71;100.00;93104.56;5054693;28;20072;-79
2023/08/26 01:20:26;;;;;;;13.50;8.43;;;;;;;19.72;100.00;93113.97;5057441;28;20129;-79
2023/08/26 01:22:56;;;;;;;13.02;9.02;;;;;;;19.72;100.00;93109.50;5051385;28;20048;-79
2023/08/26 01:25:25;;;;;;;15.18;9.40;;;;;;;19.68;100.00;93105.91;5051759;28;20504;-79
2023/08/26 01:27:52;;;;;;;11.55;9.38;;;;;;;19.64;100.00;93102.28;5053731;28;20101;-79
2023/08/26 01:30:21;;;;;;;11.07;8.90;;;;;;;19.61;100.00;93108.00;5061725;28;20053;-79
2023/08/26 01:32:55;;;;;;;12.52;9.73;;;;;;;19.58;100.00;93111.16;5052506;28;20056;-79
2023/08/26 01:35:28;;;;;;;11.73;9.20;;;;;;;19.53;100.00;93101.53;5060821;28;20044;-79
2023/08/26 01:37:55;;;;;;;11.02;8.55;;;;;;;19.58;100.00;93106.72;5054252;28;20087;-79
2023/08/26 01:40:23;;;;;;;15.02;9.32;;;;;;;19.47;100.00;93090.38;5052273;28;20049;-79
2023/08/26 01:42:53;;;;;;;11.65;8.80;;;;;;;19.54;100.00;93102.31;5057474;28;20044;-79
2023/08/26 01:45:20;;;;;;;11.38;8.93;;;;;;;19.42;100.00;93100.00;5052767;28;20497;-79
2023/08/26 01:47:47;;;;;;;12.77;9.30;;;;;;;19.42;100.00;93100.00;5055957;28;20044;-79
2023/08/26 01:50:13;;;;;;;12.48;9.27;;;;;;;19.43;100.00;93104.97;5051441;28;20087;-79
2023/08/26 01:52:41;;;;;;;11.57;8.95;;;;;;;19.41;100.00;93096.66;5063553;28;20041;-77
2023/08/26 01:55:09;;;;;;;11.70;8.68;;;;;;;19.42;100.00;93103.41;5054702;28;20068;-77
2023/08/26 01:57:35;;;;;;;12.38;9.07;;;;;;;19.35;100.00;93093.28;5049943;28;20053;-77
2023/08/26 02:00:05;;;;;;;12.93;9.15;;;;;;;19.30;100.00;93084.72;5055791;28;20077;-78
2023/08/26 02:02:31;;;;;;;12.88;9.25;;;;;;;19.35;100.00;93106.31;5053691;28;20055;-78
2023/08/26 02:04:58;;;;;;;13.48;8.73;;;;;;;19.34;100.00;93091.72;5052682;28;20045;-77
2023/08/26 02:07:25;;;;;;;15.70;9.30;;;;;;;19.37;100.00;93095.63;5055397;28;20037;-78
2023/08/26 02:09:51;;;;;;;14.13;9.57;;;;;;;19.31;100.00;93100.06;5049779;28;20555;-76
2023/08/26 02:12:18;;;;;;;13.02;8.50;;;;;;;19.28;100.00;93098.00;5054351;28;20053;-77
2023/08/26 02:14:45;;;;;;;11.38;9.50;;;;;;;19.25;100.00;93100.38;5051084;28;20045;-76
2023/08/26 02:17:13;;;;;;;10.68;8.07;;;;;;;19.18;100.00;93087.63;5052313;28;20041;-78
2023/08/26 02:19:40;;;;;;;12.50;9.00;;;;;;;19.19;100.00;93089.16;5057983;28;20098;-78
2023/08/26 02:22:07;;;;;;;11.70;8.45;;;;;;;19.16;100.00;93087.88;5051771;28;20413;-78
2023/08/26 02:24:34;;;;;;;12.13;8.18;;;;;;;19.12;100.00;93084.25;5057091;28;20060;-79
2023/08/26 02:27:01;;;;;;;10.82;8.95;;;;;;;19.11;100.00;93080.09;5049231;28;20438;-80
2023/08/26 02:29:28;;;;;;;11.88;9.10;;;;;;;18.96;100.00;93062.66;5047873;28;20560;-80
2023/08/26 02:31:54;;;;;;;13.75;9.48;;;;;;;18.95;100.00;93061.13;5051854;28;20098;-80
2023/08/26 02:34:22;;;;;;;13.15;8.73;;;;;;;19.01;100.00;93078.28;5055529;28;20048;-80
2023/08/26 02:36:49;;;;;;;11.25;8.02;;;;;;;18.98;100.00;93076.19;5056203;28;20091;-77
2023/08/26 02:39:16;;;;;;;12.55;8.73;;;;;;;18.91;100.00;93080.91;5053047;28;20091;-77
2023/08/26 02:41:42;;;;;;;12.32;8.45;;;;;;;18.89;100.00;93083.00;5047833;28;20497;-78
2023/08/26 02:44:09;;;;;;;11.68;8.30;;;;;;;18.80;100.00;93072.34;5050486;28;20115;-77
2023/08/26 02:46:36;;;;;;;10.40;8.50;;;;;;;18.81;100.00;93074.69;5064037;28;20106;-77
2023/08/26 02:49:03;;;;;;;14.85;8.40;;;;;;;18.79;100.00;93081.22;5056092;28;20455;-79
2023/08/26 02:51:31;;;;;;;14.20;9.27;;;;;;;18.74;100.00;93074.19;5056377;28;20489;-79
2023/08/26 02:54:15;;;;;;;12.38;9.23;;;;;;;18.61;100.00;93059.13;5047707;28;20048;-79
2023/08/26 02:56:45;;;;;;;12.55;8.40;;;;;;;18.69;100.00;93074.19;5051402;28;20044;-78
2023/08/26 02:59:11;;;;;;;11.77;8.73;;;;;;;18.70;100.00;93080.94;5050346;28;20053;-78
2023/08/26 03:01:40;;;;;;;14.10;8.80;;;;;;;18.73;100.00;93077.03;5049713;28;20155;-79
2023/08/26 03:04:07;;;;;;;12.32;8.38;;;;;;;18.70;100.00;93079.13;5055972;28;20048;-80
2023/08/26 03:06:35;;;;;;;10.82;8.48;;;;;;;18.67;100.00;93079.66;5066374;28;20049;-79
2023/08/26 03:09:02;;;;;;;12.15;8.60;;;;;;;18.66;100.00;93083.28;5057524;28;20052;-77
2023/08/26 03:11:29;;;;;;;14.07;9.15;;;;;;;18.67;100.00;93084.09;5048649;28;20052;-77
2023/08/26 03:13:55;;;;;;;14.02;8.63;;;;;;;18.67;100.00;93078.88;5048052;28;20045;-78
2023/08/26 03:16:22;;;;;;;14.98;8.93;;;;;;;18.67;100.00;93078.88;5048022;28;20559;-78
2023/08/26 03:18:49;;;;;;;14.55;8.60;;;;;;;18.59;100.00;93072.38;5047520;28;20057;-78
2023/08/26 03:21:16;;;;;;;12.05;8.82;;;;;;;18.66;100.00;93083.28;5051460;28;20053;-79
2023/08/26 03:23:44;;;;;;;13.13;8.70;;;;;;;18.35;100.00;93048.75;5050300;28;20405;-78
2023/08/26 03:26:10;;;;;;;13.07;9.20;;;;;;;18.48;100.00;93065.63;5056372;28;20047;-78
2023/08/26 03:28:37;;;;;;;11.95;9.00;;;;;;;18.60;100.00;93092.16;5049883;28;20044;-79
2023/08/26 03:31:05;;;;;;;14.02;9.48;;;;;;;18.52;100.00;93082.28;5049335;28;20048;-79
2023/08/26 03:33:32;;;;;;;12.68;8.43;;;;;;;18.53;100.00;93089.03;5047903;28;20048;-78
2023/08/26 03:35:58;;;;;;;20.60;9.85;;;;;;;18.18;100.00;93042.00;5047710;28;20052;-78
2023/08/26 03:38:25;;;;;;;14.77;9.45;;;;;;;18.45;100.00;93097.38;5054892;28;20045;-77
2023/08/26 03:40:53;;;;;;;12.80;9.07;;;;;;;18.45;100.00;93095.56;5048237;28;20045;-77
2023/08/26 03:43:21;;;;;;;11.70;9.00;;;;;;;18.40;100.00;93098.94;5048923;28;20054;-77
2023/08/26 03:45:48;;;;;;;11.20;8.40;;;;;;;18.19;100.00;93074.00;5047246;28;20409;-78
2023/08/26 03:50:59;;;;;;;16.90;9.45;;;;;;;18.32;100.00;93101.28;5060248;28;20047;-78
2023/08/26 03:53:27;;;;;;;11.23;9.10;;;;;;;18.32;100.00;93104.66;5047831;28;20048;-80
2023/08/26 03:55:55;;;;;;;14.95;9.70;;;;;;;18.29;100.00;93100.75;5048273;28;20053;-78
2023/08/26 03:58:22;;;;;;;11.77;8.77;;;;;;;18.26;100.00;93109.09;5047916;28;20051;-78
2023/08/26 04:00:48;;;;;;;14.30;9.52;;;;;;;18.27;100.00;93104.66;5047760;28;20091;-78
2023/08/26 04:03:15;;;;;;;12.23;9.30;;;;;;;18.30;100.00;93111.94;5048697;28;20061;-79
2023/08/26 04:05:43;;;;;;;11.55;8.90;;;;;;;18.29;100.00;93110.38;5048690;28;20055;-80
2023/08/26 04:08:09;;;;;;;12.68;9.15;;;;;;;18.31;100.00;93108.31;5052818;28;20045;-79
2023/08/26 04:10:36;;;;;;;14.77;9.00;;;;;;;18.30;100.00;93115.31;5055985;28;20079;-78
2023/08/26 04:13:20;;;;;;;14.48;9.80;;;;;;;18.15;100.00;93082.28;5050622;28;20477;-78
2023/08/26 04:15:46;;;;;;;12.77;9.23;;;;;;;18.33;100.00;93116.59;5054538;28;20041;-76
2023/08/26 04:18:14;;;;;;;13.98;8.68;;;;;;;18.25;100.00;93110.13;5049095;28;20505;-78
2023/08/26 04:20:42;;;;;;;12.10;7.93;;;;;;;18.18;100.00;93096.59;5050403;28;20123;-78
2023/08/26 04:23:09;;;;;;;13.73;9.70;;;;;;;18.42;100.00;93127.28;5050148;28;20500;-78
2023/08/26 04:25:36;;;;;;;12.90;8.52;;;;;;;18.46;100.00;93124.94;5059205;28;20149;-79
2023/08/26 04:28:04;;;;;;;23.27;10.05;;;;;;;18.45;100.00;93123.38;5050441;28;20509;-79
2023/08/26 04:30:31;;;;;;;18.92;9.32;;;;;;;18.30;100.00;93101.53;5049300;28;20972;-79
2023/08/26 04:33:02;;;;;;;16.33;10.23;;;;;;;18.48;100.00;93122.88;5049366;28;20115;-78
2023/08/26 04:35:29;;;;;;;17.75;9.20;;;;;;;18.50;100.00;93123.38;5056132;28;20044;-78
2023/08/26 04:37:56;;;;;;;16.80;9.50;;;;;;;18.50;100.00;93120.78;5047315;28;20095;-77
2023/08/26 04:40:25;;;;;;;15.13;9.68;;;;;;;18.54;100.00;93127.00;5051458;28;20044;-78
2023/08/26 04:42:53;;;;;;;15.02;9.20;;;;;;;18.58;100.00;93125.47;5048229;28;20107;-78
2023/08/26 04:45:22;;;;;;;14.27;9.32;;;;;;;18.63;100.00;93128.06;5046264;28;20044;-77
2023/08/26 04:47:49;;;;;;;16.65;9.95;;;;;;;18.68;100.00;93127.25;5048401;28;20637;-77
2023/08/26 04:50:16;;;;;;;14.18;10.13;;;;;;;18.73;100.00;93124.66;5046776;28;20091;-77
2023/08/26 04:52:43;;;;;;;17.35;9.43;;;;;;;18.68;100.00;93111.66;5054192;28;20241;-77
2023/08/26 04:55:10;;;;;;;15.80;9.70;;;;;;;18.85;100.00;93134.00;5048858;28;20052;-78
2023/08/26 04:57:37;;;;;;;12.98;9.35;;;;;;;18.87;100.00;93119.69;5065102;28;20050;-77
2023/08/26 05:00:08;;;;;;;15.68;8.77;;;;;;;18.96;100.00;93128.53;5052288;28;20099;-77
2023/08/26 05:02:36;;;;;;;14.57;9.60;;;;;;;18.96;100.00;93117.31;5050149;28;20512;-76
2023/08/26 05:05:03;;;;;;;15.18;9.93;;;;;;;19.13;100.00;93124.88;5056738;28;20394;-78
2023/08/26 05:07:30;;;;;;;14.20;9.75;;;;;;;19.21;100.00;93128.75;5049976;28;20041;-78
2023/08/26 05:09:56;;;;;;;10.70;9.32;;;;;;;19.19;100.00;93123.81;5055905;28;20496;-78
2023/08/26 05:12:24;;;;;;;13.38;9.40;;;;;;;19.27;100.00;93126.91;5050137;28;20044;-78
2023/08/26 05:14:50;;;;;;;19.70;13.90;;;;;;;19.25;100.00;93118.59;5051636;28;20056;-78
2023/08/26 05:17:17;;;;;;;14.27;9.52;;;;;;;19.28;100.00;93126.66;5049717;28;20045;-78
2023/08/26 05:19:45;;;;;;;12.13;9.35;;;;;;;19.40;100.00;93123.75;5055459;28;20555;-79
2023/08/26 05:22:12;;;;;;;13.63;9.15;;;;;;;19.52;100.00;93127.88;5059727;28;20060;-79
2023/08/26 05:24:39;;;;;;;13.23;9.82;;;;;;;19.64;100.00;93125.72;5059392;28;20049;-79
2023/08/26 05:27:12;;;;;;;14.00;8.90;;;;;;;19.74;100.00;93127.50;5054002;28;20094;-76
2023/08/26 05:29:42;;;;;;;12.52;9.30;;;;;;;19.84;100.00;93135.25;5052776;28;20052;-77
2023/08/26 05:32:08;;;;;;;14.45;9.85;;;;;;;19.94;100.00;93134.41;5052779;28;20135;-77
2023/08/26 05:34:36;;;;;;;13.13;8.85;;;;;;;20.05;100.00;93131.78;5050855;28;20495;-77
2023/08/26 05:37:05;;;;;;;14.02;9.48;;;;;;;20.17;100.00;93129.59;5052937;28;20056;-77
2023/08/26 05:39:31;;;;;;;14.85;9.65;;;;;;;20.26;100.00;93122.78;5053515;28;20127;-77
2023/08/26 05:41:58;;;;;;;16.27;8.60;;;;;;;20.33;100.00;93130.28;5057233;28;20099;-78
2023/08/26 05:44:25;;;;;;;17.13;9.27;;;;;;;20.42;100.00;93131.25;5052722;28;20041;-77
2023/08/26 05:46:51;;;;;;;11.50;8.75;;;;;;;20.55;100.00;93131.69;5054140;28;20094;-77
2023/08/26 05:49:19;;;;;;;12.98;9.50;;;;;;;20.58;100.00;93115.47;5048881;28;20123;-77
2023/08/26 05:51:45;;;;;;;12.70;9.82;;;;;;;20.78;100.00;93134.63;5049078;28;20049;-77
2023/08/26 05:54:13;;;;;;;10.88;8.70;;;;;;;20.86;100.00;93114.97;5051039;28;20105;-77
2023/08/26 05:56:40;;;;;;;15.98;9.02;;;;;;;21.12;100.00;93128.56;5056014;28;20106;-77
2023/08/26 05:59:07;;;;;;;15.73;8.48;;;;;;;21.28;100.00;93117.97;5050914;28;20045;-77
2023/08/26 06:01:33;;;;;;;13.00;9.25;;;;;;;21.40;100.00;93120.16;5051040;28;20056;-77
2023/08/26 06:04:00;;;;;;;15.18;9.40;;;;;;;21.53;100.00;93119.50;5050140;28;20093;-77
2023/08/26 06:06:28;;;;;;;13.73;9.35;;;;;;;21.74;100.00;93120.03;5047828;28;20059;-76
2023/08/26 06:08:55;;;;;;;16.55;9.50;;;;;;;21.92;100.00;93130.78;5052239;28;20091;-76
2023/08/26 06:11:23;;;;;;;13.00;8.68;;;;;;;22.06;100.00;93124.84;5050160;28;20439;-76
2023/08/26 06:13:50;;;;;;;13.00;9.10;;;;;;;22.22;100.00;93126.16;5048250;28;20053;-76
2023/08/26 06:16:19;;;;;;;15.80;10.00;;;;;;;22.37;100.00;93132.25;5049016;28;20056;-76
2023/08/26 06:18:46;;;;;;;20.98;9.40;;;;;;;22.57;100.00;93130.41;5061315;28;20045;-77
2023/08/26 06:21:13;;;;;;;12.88;8.13;;;;;;;22.68;99.81;93126.56;5049807;28;20139;-77
2023/08/26 06:23:39;;;;;;;15.63;8.05;;;;;;;22.88;98.58;93135.13;5053562;28;20052;-76
2023/08/26 06:26:06;;;;;;;12.85;8.57;;;;;;;23.07;96.57;93129.81;5054342;28;20053;-77
2023/08/26 06:28:34;;;;;;;19.48;9.45;;;;;;;23.26;95.63;93128.94;5050041;28;20087;-77
2023/08/26 06:31:02;;;;;;;13.13;8.25;;;;;;;23.30;94.73;93122.03;5051636;28;20053;-76
2023/08/26 06:33:29;;;;;;;17.60;8.45;;;;;;;23.54;95.34;93134.19;5058525;28;20052;-77
2023/08/26 06:35:55;;;;;;;13.95;8.77;;;;;;;23.75;93.80;93140.56;5052366;28;20551;-77
2023/08/26 06:38:22;;;;;;;12.70;8.20;;;;;;;23.85;91.93;93134.38;5051500;28;20049;-77
2023/08/26 06:40:59;;;;;;;9.68;7.35;;;;;;;23.78;89.46;93139.22;5054894;28;20045;-77
2023/08/26 06:43:26;;;;;;;12.43;8.75;;;;;;;23.77;89.09;93145.53;5052533;28;20044;-77
2023/08/26 06:45:54;;;;;;;10.73;7.30;;;;;;;23.90;89.03;93149.22;5048662;28;20045;-78
2023/08/26 06:48:20;;;;;;;32.25;10.13;;;;;;;24.01;89.94;93149.75;5052723;28;20485;-78
2023/08/26 06:50:51;;;;;;;11.65;7.97;;;;;;;24.25;89.75;93154.00;5048745;28;20049;-76
2023/08/26 06:53:20;;;;;;;14.05;8.77;;;;;;;24.38;88.08;93149.75;5047927;28;20060;-76
2023/08/26 06:55:49;;;;;;;11.80;7.90;;;;;;;24.50;88.66;93157.13;5048228;28;20049;-77
2023/08/26 06:58:34;;;;;;;15.00;8.95;;;;;;;24.60;86.26;93156.09;5057418;28;20135;-77
2023/08/26 07:01:02;;;;;;;11.57;8.23;;;;;;;24.51;88.44;93154.19;5047885;28;20180;-77
2023/08/26 07:03:30;;;;;;;11.18;7.43;;;;;;;24.83;87.92;93156.88;5047955;28;20045;-77
2023/08/26 07:05:57;;;;;;;12.77;7.85;;;;;;;25.14;84.82;93160.59;5060892;28;20120;-77
2023/08/26 07:08:23;;;;;;;10.93;8.02;;;;;;;25.34;84.61;93164.53;5055663;28;20099;-77
2023/08/26 07:10:50;;;;;;;17.10;8.57;;;;;;;25.69;84.24;93153.38;5047950;28;20227;-77
2023/08/26 07:13:17;;;;;;;12.43;8.90;;;;;;;25.93;80.89;93155.59;5051081;28;20048;-78
2023/08/26 07:15:44;;;;;;;12.50;8.00;;;;;;;25.97;77.67;93164.41;5051360;28;20049;-78
2023/08/26 07:18:12;;;;;;;12.00;8.63;;;;;;;26.03;78.25;93154.53;5050639;28;20045;-76
2023/08/26 07:20:39;;;;;;;11.48;8.00;;;;;;;26.28;78.25;93157.50;5048694;28;20094;-76
2023/08/26 07:23:05;;;;;;;13.55;8.23;;;;;;;26.59;76.20;93161.81;5049496;28;20057;-77
2023/08/26 07:25:35;;;;;;;10.57;7.68;;;;;;;26.76;74.52;93145.19;5047291;28;20049;-77
2023/08/26 07:28:03;;;;;;;11.55;7.90;;;;;;;26.47;73.98;93153.78;5047390;28;20570;-77
2023/08/26 07:30:30;;;;;;;10.80;6.95;;;;;;;26.87;74.60;93158.03;5047305;28;20037;-77
2023/08/26 07:32:56;;;;;;;12.80;7.88;;;;;;;27.11;73.71;93162.06;5053260;28;20053;-78
2023/08/26 07:35:24;;;;;;;12.77;7.28;;;;;;;27.42;74.04;93158.34;5048342;28;20094;-76
2023/08/26 07:37:51;;;;;;;10.38;7.47;;;;;;;27.53;73.02;93159.53;5048475;28;20102;-77
2023/08/26 07:40:18;;;;;;;11.13;6.95;;;;;;;27.05;72.62;93138.50;5057481;28;20045;-76
2023/08/26 07:42:45;;;;;;;12.63;7.25;;;;;;;27.44;73.34;93156.19;5059995;28;20103;-77
2023/08/26 07:45:12;;;;;;;10.15;7.55;;;;;;;27.63;72.26;93160.31;5058829;28;20051;-77
2023/08/26 07:47:41;;;;;;;13.75;7.70;;;;;;;27.99;71.99;93151.88;5049147;28;20489;-77
2023/08/26 07:50:08;;;;;;;13.27;8.55;;;;;;;28.13;69.92;93146.31;5047239;28;20128;-77
2023/08/26 07:52:37;;;;;;;11.20;7.10;;;;;;;28.56;68.80;93158.75;5049191;28;20044;-77
2023/08/26 07:55:04;;;;;;;9.63;7.25;;;;;;;28.77;67.13;93156.84;5047531;28;20045;-77
2023/08/26 07:57:31;;;;;;;14.57;8.65;;;;;;;28.70;64.81;93153.97;5050329;28;20049;-77
2023/08/26 07:59:57;;;;;;;10.65;7.47;;;;;;;29.01;67.29;93154.63;5050036;28;20146;-77
2023/08/26 08:02:24;;;;;;;10.23;6.50;;;;;;;28.84;64.17;93161.63;5048959;28;20056;-77
2023/08/26 08:04:51;;;;;;;9.80;6.60;;;;;;;28.60;65.45;93144.56;5048955;28;20150;-77
2023/08/26 08:07:17;;;;;;;12.90;6.78;;;;;;;28.70;63.75;93148.69;5060557;28;20599;-77
2023/08/26 08:09:45;;;;;;;10.70;6.75;;;;;;;28.98;64.18;93148.13;5049042;28;20098;-77
2023/08/26 08:12:14;;;;;;;9.20;6.88;;;;;;;29.33;63.18;93142.44;5050986;28;20056;-77
2023/08/26 08:14:41;;;;;;;9.27;6.38;;;;;;;29.51;61.58;93144.09;5049488;28;20841;-77
2023/08/26 08:17:08;;;;;;;9.55;7.10;;;;;;;29.55;61.21;93148.41;5050897;28;20037;-78
2023/08/26 08:19:38;;;;;;;11.48;6.95;;;;;;;29.21;61.54;93140.53;5051750;28;20048;-77
2023/08/26 08:22:05;;;;;;;12.40;7.18;;;;;;;29.59;61.81;93132.63;5051229;28;20057;-77
2023/08/26 08:24:32;;;;;;;9.77;6.03;;;;;;;29.67;59.10;93129.09;5047368;28;20091;-77
2023/08/26 08:27:00;;;;;;;8.40;6.20;;;;;;;29.83;58.14;93139.00;5061350;28;20056;-77
2023/08/26 08:29:26;;;;;;;8.27;6.53;;;;;;;29.89;58.43;93129.72;5054045;28;20057;-77
2023/08/26 08:31:53;;;;;;;7.63;5.72;;;;;;;30.10;56.71;93131.47;5054817;28;20107;-78
2023/08/26 08:34:20;;;;;;;8.55;6.30;;;;;;;30.21;56.38;93129.09;5053856;28;20121;-77
2023/08/26 08:36:46;;;;;;;7.18;5.95;;;;;;;30.61;55.91;93124.88;5055361;28;20040;-77
2023/08/26 08:39:13;;;;;;;7.78;5.28;;;;;;;30.87;55.34;93135.03;5053153;28;20586;-77
2023/08/26 08:41:42;;;;;;;7.90;6.03;;;;;;;30.85;54.08;93128.53;5059626;28;20047;-77
2023/08/26 08:44:14;;;;;;;9.45;6.53;;;;;;;30.93;54.70;93125.72;5052657;28;20542;-77
2023/08/26 08:46:42;;;;;;;8.98;6.50;;;;;;;30.47;54.74;93126.06;5052712;28;20056;-77
2023/08/26 08:49:09;;;;;;;10.98;6.50;;;;;;;30.08;55.26;93131.03;5052806;28;20456;-77
2023/08/26 08:51:37;;;;;;;8.60;5.25;;;;;;;29.91;56.13;93122.22;5060832;28;20098;-77
2023/08/26 08:54:04;;;;;;;7.75;5.50;;;;;;;30.39;54.55;93130.38;5053025;28;20076;-77
2023/08/26 08:56:33;;;;;;;8.20;5.53;;;;;;;30.72;52.26;93120.66;5061991;28;20045;-77
2023/08/26 08:59:01;;;;;;;8.85;6.13;;;;;;;31.06;53.03;93134.38;5053631;28;20044;-77
2023/08/26 09:01:31;;;;;;;8.40;5.65;;;;;;;31.48;51.10;93127.03;5054040;28;20075;-77
2023/08/26 09:04:16;;;;;;;7.80;5.10;;;;;;;31.50;51.52;93118.69;5056196;28;20136;-77
2023/08/26 09:09:27;;;;;;;7.63;5.28;;;;;;;32.21;50.32;93124.03;5055067;28;20095;-78
2023/08/26 09:11:54;;;;;;;8.00;6.00;;;;;;;32.08;47.00;93128.69;5053178;28;20169;-77
2023/08/26 09:14:21;;;;;;;7.93;5.45;;;;;;;31.67;48.30;93120.22;5051922;28;20049;-77
2023/08/26 09:16:49;;;;;;;7.80;4.95;;;;;;;32.08;48.27;93125.28;5054230;28;20052;-77
2023/08/26 09:19:15;;;;;;;7.53;5.40;;;;;;;31.71;48.19;93121.84;5052898;28;20049;-77
2023/08/26 09:21:43;;;;;;;8.43;5.50;;;;;;;31.72;48.08;93119.97;5053204;28;20666;-77
2023/08/26 09:24:13;;;;;;;7.47;4.90;;;;;;;31.91;50.08;93119.25;5052654;28;20512;-78
2023/08/26 09:26:40;;;;;;;7.47;5.45;;;;;;;32.35;46.98;93115.56;5054007;28;20048;-78
2023/08/26 09:29:13;;;;;;;8.57;5.20;;;;;;;32.56;45.76;93109.13;5051490;28;20045;-77
2023/08/26 09:31:52;;;;;;;7.60;4.95;;;;;;;32.87;43.04;93101.31;5060256;28;20053;-78
2023/08/26 09:34:24;;;;;;;7.72;5.18;;;;;;;32.39;45.16;93095.13;5057959;28;20143;-77
2023/08/26 09:36:51;;;;;;;7.13;4.82;;;;;;;32.60;45.66;93112.63;5060577;28;20139;-77
2023/08/26 09:39:18;;;;;;;8.23;5.20;;;;;;;32.80;43.92;93109.94;5051952;28;20508;-78
2023/08/26 09:41:47;;;;;;;7.50;5.38;;;;;;;33.05;44.67;93113.03;5059498;28;20094;-78
2023/08/26 09:44:15;;;;;;;7.50;5.28;;;;;;;32.93;44.73;93108.66;5052157;28;20124;-78
2023/08/26 09:46:43;;;;;;;11.20;5.93;;;;;;;32.42;44.44;93095.56;5052219;28;20103;-78
2023/08/26 09:49:14;;;;;;;9.13;5.00;;;;;;;31.89;43.94;93107.44;5055090;28;20049;-78
2023/08/26 09:51:46;;;;;;;6.72;4.78;;;;;;;31.95;44.76;93090.88;5055749;28;20454;-77
2023/08/26 09:54:16;;;;;;;11.13;4.70;;;;;;;32.39;44.18;93094.34;5058663;28;20063;-78
2023/08/26 09:56:43;;;;;;;7.82;5.28;;;;;;;32.76;45.01;93103.81;5055496;28;20127;-78
2023/08/26 09:59:10;;;;;;;10.07;4.20;;;;;;;33.41;41.31;93099.50;5051772;28;20049;-78
2023/08/26 10:01:39;;;;;;;6.35;4.22;;;;;;;33.90;38.91;93093.72;5055144;28;20053;-78
2023/08/26 10:04:09;;;;;;;7.20;4.13;;;;;;;33.84;37.64;93093.28;5054891;28;20386;-78
2023/08/26 10:06:42;;;;;;;5.05;3.97;;;;;;;33.98;38.24;93088.13;5060543;28;20147;-78
2023/08/26 10:09:26;;;;;;;5.70;3.70;;;;;;;33.93;38.02;93093.75;5056784;28;20099;-77
2023/08/26 10:11:55;;;;;;;9.30;4.18;;;;;;;34.30;39.08;93089.66;5051831;28;20587;-78
2023/08/26 10:14:25;;;;;;;7.45;5.70;;;;;;;33.60;42.72;93073.97;5052864;28;20599;-78
2023/08/26 10:16:54;;;;;;;8.38;5.22;;;;;;;33.23;43.57;93085.19;5051127;28;20048;-78
2023/08/26 10:19:21;;;;;;;6.68;5.13;;;;;;;32.89;44.92;93043.19;5053023;28;20059;-77
2023/08/26 10:21:51;;;;;;;9.60;5.88;;;;;;;32.62;44.17;93083.78;5050179;28;20600;-77
2023/08/26 10:24:19;;;;;;;8.70;5.85;;;;;;;32.28;44.83;93075.56;5051580;28;20091;-78
2023/08/26 10:26:46;;;;;;;7.68;6.00;;;;;;;32.02;46.12;93081.53;5051264;28;20056;-78
2023/08/26 10:29:14;;;;;;;9.18;5.82;;;;;;;32.02;44.13;93070.91;5055876;28;20040;-78
2023/08/26 10:31:43;;;;;;;9.40;5.75;;;;;;;32.23;45.35;93065.22;5050825;28;20508;-77
2023/08/26 10:34:16;;;;;;;8.35;5.25;;;;;;;32.65;43.87;93072.47;5050463;28;20052;-77
2023/08/26 10:36:47;;;;;;;6.15;4.88;;;;;;;32.87;44.58;93038.25;5052155;28;20048;-77
2023/08/26 10:39:18;;;;;;;10.68;5.05;;;;;;;32.98;42.23;93066.91;5056382;28;20132;-77
2023/08/26 10:42:12;;;;;;;7.95;4.85;;;;;;;33.42;41.36;93069.09;5049900;28;20095;-77
2023/08/26 10:44:40;;;;;;;11.10;5.57;;;;;;;33.86;40.93;93064.38;5047222;28;20044;-78
2023/08/26 10:47:07;;;;;;;7.85;5.57;;;;;;;34.29;39.06;93063.38;5053680;28;20048;-78
2023/08/26 10:49:35;;;;;;;10.55;4.80;;;;;;;33.26;40.83;93066.59;5048730;28;20052;-77
2023/08/26 10:52:09;;;;;;;6.00;4.80;;;;;;;33.36;39.79;93065.22;5049442;28;20048;-77
2023/08/26 10:54:37;;;;;;;5.93;4.43;;;;;;;33.78;40.30;93063.50;5056466;28;20131;-78
2023/08/26 10:57:07;;;;;;;5.35;4.25;;;;;;;34.22;39.46;93054.16;5058897;28;20098;-78
2023/08/26 10:59:37;;;;;;;8.90;5.20;;;;;;;34.50;37.58;93057.47;5055476;28;20041;-78
2023/08/26 11:02:07;;;;;;;7.05;4.70;;;;;;;34.77;37.67;93049.38;5048336;28;20045;-78
2023/08/26 11:04:34;;;;;;;5.25;4.20;;;;;;;34.44;37.13;93025.06;5054851;28;20036;-79
2023/08/26 11:07:01;;;;;;;7.28;5.15;;;;;;;33.75;38.20;93055.47;5057206;28;20040;-77
2023/08/26 11:09:28;;;;;;;12.60;4.90;;;;;;;33.64;38.69;93058.78;5051554;28;20145;-78
2023/08/26 11:11:56;;;;;;;9.27;6.00;;;;;;;32.97;40.19;93055.53;5049708;28;20060;-78
2023/08/26 11:14:31;;;;;;;5.47;4.78;;;;;;;33.40;38.87;93043.97;5048603;28;20045;-78
2023/08/26 11:17:02;;;;;;;7.03;4.85;;;;;;;32.90;38.91;93053.47;5046986;28;20045;-78
2023/08/26 11:19:29;;;;;;;6.38;4.93;;;;;;;33.10;39.40;93039.38;5054095;28;20052;-77
2023/08/26 11:21:57;;;;;;;8.05;4.70;;;;;;;33.50;39.18;93039.94;5048778;28;20048;-78
2023/08/26 11:24:30;;;;;;;6.55;4.80;;;;;;;33.78;39.37;93034.22;5055578;28;20048;-78
2023/08/26 11:26:59;;;;;;;6.13;4.80;;;;;;;34.20;39.11;93029.75;5058728;28;20048;-79
2023/08/26 11:29:25;;;;;;;7.68;5.13;;;;;;;34.55;38.27;93033.16;5061664;28;20079;-79
2023/08/26 11:31:52;;;;;;;6.38;4.80;;;;;;;34.80;36.56;93026.53;5053615;28;20048;-79